sensor_id;sensor_type;location;lat;lon;timestamp;P1;durP1;ratioP1;P2;durP2;ratioP2
5022;SDS011;2530;47.990;7.866;2022-09-03T00:05:15;2.80;;;1.90;;
5022;SDS011;2530;47.990;7.866;2022-09-03T00:10:40;2.15;;;1.95;;
5022;SDS011;2530;47.990;7.866;2022-09-03T00:13:19;5.53;;;1.90;;
5022;SDS011;2530;47.990;7.866;2022-09-03T00:15:49;1.80;;;1.60;;
5022;SDS011;2530;47.990;7.866;2022-09-03T00:18:20;2.70;;;2.03;;
5022;SDS011;2530;47.990;7.866;2022-09-03T00:20:57;2.00;;;1.80;;
5022;SDS011;2530;47.990;7.866;2022-09-03T00:23:32;2.70;;;1.63;;
5022;SDS011;2530;47.990;7.866;2022-09-03T00:31:26;2.47;;;2.00;;
5022;SDS011;2530;47.990;7.866;2022-09-03T00:33:59;2.45;;;2.00;;
5022;SDS011;2530;47.990;7.866;2022-09-03T00:36:44;2.45;;;2.20;;
5022;SDS011;2530;47.990;7.866;2022-09-03T00:39:20;3.50;;;1.95;;
5022;SDS011;2530;47.990;7.866;2022-09-03T00:50:20;2.67;;;1.90;;
5022;SDS011;2530;47.990;7.866;2022-09-03T00:56:03;2.03;;;1.90;;
5022;SDS011;2530;47.990;7.866;2022-09-03T00:58:46;2.60;;;2.40;;
5022;SDS011;2530;47.990;7.866;2022-09-03T01:01:39;2.75;;;2.10;;
5022;SDS011;2530;47.990;7.866;2022-09-03T01:10:00;2.35;;;2.15;;
5022;SDS011;2530;47.990;7.866;2022-09-03T01:12:42;2.30;;;2.10;;
5022;SDS011;2530;47.990;7.866;2022-09-03T01:26:02;3.78;;;2.00;;
5022;SDS011;2530;47.990;7.866;2022-09-03T01:32:10;2.35;;;2.15;;
5022;SDS011;2530;47.990;7.866;2022-09-03T01:40:27;3.15;;;2.33;;
5022;SDS011;2530;47.990;7.866;2022-09-03T01:46:09;2.70;;;2.35;;
5022;SDS011;2530;47.990;7.866;2022-09-03T01:51:27;2.70;;;2.50;;
5022;SDS011;2530;47.990;7.866;2022-09-03T01:54:05;2.28;;;2.13;;
5022;SDS011;2530;47.990;7.866;2022-09-03T01:57:17;2.57;;;2.37;;
5022;SDS011;2530;47.990;7.866;2022-09-03T02:00:12;4.72;;;2.50;;
5022;SDS011;2530;47.990;7.866;2022-09-03T02:02:40;3.07;;;2.40;;
5022;SDS011;2530;47.990;7.866;2022-09-03T02:05:22;3.80;;;2.50;;
5022;SDS011;2530;47.990;7.866;2022-09-03T02:07:54;2.30;;;2.10;;
5022;SDS011;2530;47.990;7.866;2022-09-03T02:10:32;2.28;;;2.08;;
5022;SDS011;2530;47.990;7.866;2022-09-03T02:15:40;3.10;;;2.40;;
5022;SDS011;2530;47.990;7.866;2022-09-03T02:18:11;2.85;;;2.55;;
5022;SDS011;2530;47.990;7.866;2022-09-03T02:20:41;2.50;;;2.30;;
5022;SDS011;2530;47.990;7.866;2022-09-03T02:23:07;2.47;;;2.28;;
5022;SDS011;2530;47.990;7.866;2022-09-03T02:25:35;2.40;;;2.20;;
5022;SDS011;2530;47.990;7.866;2022-09-03T02:28:03;2.67;;;2.47;;
5022;SDS011;2530;47.990;7.866;2022-09-03T02:30:30;2.90;;;2.70;;
5022;SDS011;2530;47.990;7.866;2022-09-03T02:32:55;2.60;;;2.40;;
5022;SDS011;2530;47.990;7.866;2022-09-03T02:35:21;3.40;;;2.60;;
5022;SDS011;2530;47.990;7.866;2022-09-03T02:37:47;3.37;;;3.07;;
5022;SDS011;2530;47.990;7.866;2022-09-03T02:40:12;3.33;;;2.83;;
5022;SDS011;2530;47.990;7.866;2022-09-03T02:42:38;4.30;;;2.80;;
5022;SDS011;2530;47.990;7.866;2022-09-03T02:47:47;2.70;;;2.50;;
5022;SDS011;2530;47.990;7.866;2022-09-03T02:50:16;3.00;;;2.80;;
5022;SDS011;2530;47.990;7.866;2022-09-03T02:52:41;4.13;;;3.10;;
5022;SDS011;2530;47.990;7.866;2022-09-03T02:55:07;3.38;;;2.80;;
5022;SDS011;2530;47.990;7.866;2022-09-03T02:57:33;2.80;;;2.60;;
5022;SDS011;2530;47.990;7.866;2022-09-03T02:59:58;3.90;;;2.90;;
5022;SDS011;2530;47.990;7.866;2022-09-03T03:02:24;3.30;;;3.00;;
5022;SDS011;2530;47.990;7.866;2022-09-03T03:04:49;2.80;;;2.60;;
5022;SDS011;2530;47.990;7.866;2022-09-03T03:07:15;3.57;;;3.10;;
5022;SDS011;2530;47.990;7.866;2022-09-03T03:09:40;3.17;;;2.97;;
5022;SDS011;2530;47.990;7.866;2022-09-03T03:12:06;4.67;;;3.00;;
5022;SDS011;2530;47.990;7.866;2022-09-03T03:14:33;3.20;;;3.00;;
5022;SDS011;2530;47.990;7.866;2022-09-03T03:16:59;3.50;;;3.20;;
5022;SDS011;2530;47.990;7.866;2022-09-03T03:19:24;3.20;;;2.97;;
5022;SDS011;2530;47.990;7.866;2022-09-03T03:21:50;4.00;;;3.45;;
5022;SDS011;2530;47.990;7.866;2022-09-03T03:24:15;4.53;;;3.07;;
5022;SDS011;2530;47.990;7.866;2022-09-03T03:26:41;3.50;;;3.20;;
5022;SDS011;2530;47.990;7.866;2022-09-03T03:29:06;3.73;;;3.43;;
5022;SDS011;2530;47.990;7.866;2022-09-03T03:31:32;4.40;;;2.90;;
5022;SDS011;2530;47.990;7.866;2022-09-03T03:34:01;3.53;;;3.22;;
5022;SDS011;2530;47.990;7.866;2022-09-03T03:36:28;3.70;;;3.40;;
5022;SDS011;2530;47.990;7.866;2022-09-03T03:38:56;3.60;;;3.30;;
5022;SDS011;2530;47.990;7.866;2022-09-03T03:41:24;3.30;;;3.10;;
5022;SDS011;2530;47.990;7.866;2022-09-03T03:43:52;4.10;;;3.03;;
5022;SDS011;2530;47.990;7.866;2022-09-03T03:46:22;3.72;;;3.42;;
5022;SDS011;2530;47.990;7.866;2022-09-03T03:48:48;4.10;;;3.80;;
5022;SDS011;2530;47.990;7.866;2022-09-03T03:51:15;3.40;;;3.20;;
5022;SDS011;2530;47.990;7.866;2022-09-03T03:53:41;3.80;;;3.50;;
5022;SDS011;2530;47.990;7.866;2022-09-03T03:56:08;3.50;;;3.20;;
5022;SDS011;2530;47.990;7.866;2022-09-03T03:58:36;3.60;;;3.30;;
5022;SDS011;2530;47.990;7.866;2022-09-03T04:01:06;4.73;;;3.60;;
5022;SDS011;2530;47.990;7.866;2022-09-03T04:03:37;4.10;;;3.70;;
5022;SDS011;2530;47.990;7.866;2022-09-03T04:06:03;3.97;;;3.67;;
5022;SDS011;2530;47.990;7.866;2022-09-03T04:08:30;3.80;;;3.50;;
5022;SDS011;2530;47.990;7.866;2022-09-03T04:11:00;3.78;;;3.47;;
5022;SDS011;2530;47.990;7.866;2022-09-03T04:13:30;4.03;;;3.72;;
5022;SDS011;2530;47.990;7.866;2022-09-03T04:16:06;4.30;;;3.90;;
5022;SDS011;2530;47.990;7.866;2022-09-03T04:18:37;3.75;;;3.45;;
5022;SDS011;2530;47.990;7.866;2022-09-03T04:21:06;3.60;;;3.40;;
5022;SDS011;2530;47.990;7.866;2022-09-03T04:23:33;4.38;;;3.97;;
5022;SDS011;2530;47.990;7.866;2022-09-03T04:25:59;3.90;;;3.60;;
5022;SDS011;2530;47.990;7.866;2022-09-03T04:28:25;4.00;;;3.70;;
5022;SDS011;2530;47.990;7.866;2022-09-03T04:30:51;6.00;;;3.78;;
5022;SDS011;2530;47.990;7.866;2022-09-03T04:33:17;3.97;;;3.67;;
5022;SDS011;2530;47.990;7.866;2022-09-03T04:35:43;4.30;;;4.00;;
5022;SDS011;2530;47.990;7.866;2022-09-03T04:38:08;3.90;;;3.53;;
5022;SDS011;2530;47.990;7.866;2022-09-03T04:40:34;3.90;;;3.60;;
5022;SDS011;2530;47.990;7.866;2022-09-03T04:43:00;6.35;;;3.97;;
5022;SDS011;2530;47.990;7.866;2022-09-03T04:45:26;3.67;;;3.30;;
5022;SDS011;2530;47.990;7.866;2022-09-03T04:47:56;4.07;;;3.67;;
5022;SDS011;2530;47.990;7.866;2022-09-03T04:50:22;4.72;;;3.80;;
5022;SDS011;2530;47.990;7.866;2022-09-03T04:52:48;3.63;;;3.22;;
5022;SDS011;2530;47.990;7.866;2022-09-03T04:55:13;4.00;;;3.60;;
5022;SDS011;2530;47.990;7.866;2022-09-03T04:57:39;3.87;;;3.50;;
5022;SDS011;2530;47.990;7.866;2022-09-03T05:00:07;3.50;;;3.20;;
5022;SDS011;2530;47.990;7.866;2022-09-03T05:02:35;3.30;;;3.10;;
5022;SDS011;2530;47.990;7.866;2022-09-03T05:05:01;3.80;;;3.30;;
5022;SDS011;2530;47.990;7.866;2022-09-03T05:07:28;3.70;;;3.40;;
5022;SDS011;2530;47.990;7.866;2022-09-03T05:10:03;3.78;;;3.30;;
5022;SDS011;2530;47.990;7.866;2022-09-03T05:12:30;3.60;;;3.30;;
5022;SDS011;2530;47.990;7.866;2022-09-03T05:14:57;3.33;;;3.08;;
5022;SDS011;2530;47.990;7.866;2022-09-03T05:17:23;3.58;;;3.25;;
5022;SDS011;2530;47.990;7.866;2022-09-03T05:19:49;3.40;;;3.10;;
5022;SDS011;2530;47.990;7.866;2022-09-03T05:22:15;4.17;;;3.63;;
5022;SDS011;2530;47.990;7.866;2022-09-03T05:24:45;3.80;;;3.40;;
5022;SDS011;2530;47.990;7.866;2022-09-03T05:27:11;3.37;;;3.17;;
5022;SDS011;2530;47.990;7.866;2022-09-03T05:29:36;3.27;;;3.07;;
5022;SDS011;2530;47.990;7.866;2022-09-03T05:32:02;3.50;;;3.20;;
5022;SDS011;2530;47.990;7.866;2022-09-03T05:34:27;3.57;;;3.27;;
5022;SDS011;2530;47.990;7.866;2022-09-03T05:36:53;3.20;;;2.90;;
5022;SDS011;2530;47.990;7.866;2022-09-03T05:39:20;4.03;;;3.20;;
5022;SDS011;2530;47.990;7.866;2022-09-03T05:41:46;3.40;;;2.78;;
5022;SDS011;2530;47.990;7.866;2022-09-03T05:44:14;3.10;;;2.80;;
5022;SDS011;2530;47.990;7.866;2022-09-03T05:46:39;2.90;;;2.70;;
5022;SDS011;2530;47.990;7.866;2022-09-03T05:49:05;3.13;;;2.83;;
5022;SDS011;2530;47.990;7.866;2022-09-03T05:51:31;2.80;;;2.60;;
5022;SDS011;2530;47.990;7.866;2022-09-03T05:53:58;3.50;;;3.20;;
5022;SDS011;2530;47.990;7.866;2022-09-03T05:56:25;2.63;;;2.43;;
5022;SDS011;2530;47.990;7.866;2022-09-03T05:58:53;3.70;;;2.90;;
5022;SDS011;2530;47.990;7.866;2022-09-03T06:01:24;3.05;;;2.75;;
5022;SDS011;2530;47.990;7.866;2022-09-03T06:03:56;2.80;;;2.60;;
5022;SDS011;2530;47.990;7.866;2022-09-03T06:06:24;3.13;;;2.92;;
5022;SDS011;2530;47.990;7.866;2022-09-03T06:08:55;2.83;;;2.63;;
5022;SDS011;2530;47.990;7.866;2022-09-03T06:11:29;2.67;;;2.47;;
5022;SDS011;2530;47.990;7.866;2022-09-03T06:13:56;2.72;;;2.53;;
5022;SDS011;2530;47.990;7.866;2022-09-03T06:16:25;2.92;;;2.60;;
5022;SDS011;2530;47.990;7.866;2022-09-03T06:18:51;2.80;;;2.60;;
5022;SDS011;2530;47.990;7.866;2022-09-03T06:21:17;3.47;;;2.78;;
5022;SDS011;2530;47.990;7.866;2022-09-03T06:23:43;4.30;;;2.50;;
5022;SDS011;2530;47.990;7.866;2022-09-03T06:26:15;2.90;;;2.70;;
5022;SDS011;2530;47.990;7.866;2022-09-03T06:28:41;3.63;;;2.28;;
5022;SDS011;2530;47.990;7.866;2022-09-03T06:31:09;2.60;;;2.40;;
5022;SDS011;2530;47.990;7.866;2022-09-03T06:33:38;3.00;;;2.60;;
5022;SDS011;2530;47.990;7.866;2022-09-03T06:36:06;2.47;;;2.28;;
5022;SDS011;2530;47.990;7.866;2022-09-03T06:38:34;3.50;;;2.70;;
5022;SDS011;2530;47.990;7.866;2022-09-03T06:41:07;2.45;;;2.25;;
5022;SDS011;2530;47.990;7.866;2022-09-03T06:43:45;2.60;;;2.40;;
5022;SDS011;2530;47.990;7.866;2022-09-03T06:46:13;2.40;;;2.20;;
5022;SDS011;2530;47.990;7.866;2022-09-03T06:48:40;3.40;;;2.40;;
5022;SDS011;2530;47.990;7.866;2022-09-03T06:51:07;2.80;;;2.40;;
5022;SDS011;2530;47.990;7.866;2022-09-03T06:53:35;2.70;;;2.50;;
5022;SDS011;2530;47.990;7.866;2022-09-03T06:56:04;2.50;;;2.30;;
5022;SDS011;2530;47.990;7.866;2022-09-03T06:58:32;2.10;;;2.00;;
5022;SDS011;2530;47.990;7.866;2022-09-03T07:01:03;2.88;;;2.67;;
5022;SDS011;2530;47.990;7.866;2022-09-03T07:03:33;2.20;;;2.00;;
5022;SDS011;2530;47.990;7.866;2022-09-03T07:06:00;2.40;;;2.20;;
5022;SDS011;2530;47.990;7.866;2022-09-03T07:08:30;3.10;;;2.80;;
5022;SDS011;2530;47.990;7.866;2022-09-03T07:10:58;3.10;;;2.47;;
5022;SDS011;2530;47.990;7.866;2022-09-03T07:13:32;2.65;;;2.10;;
5022;SDS011;2530;47.990;7.866;2022-09-03T07:16:00;2.40;;;2.20;;
5022;SDS011;2530;47.990;7.866;2022-09-03T07:18:27;2.15;;;2.03;;
5022;SDS011;2530;47.990;7.866;2022-09-03T07:21:00;2.45;;;2.25;;
5022;SDS011;2530;47.990;7.866;2022-09-03T07:23:31;2.60;;;2.17;;
5022;SDS011;2530;47.990;7.866;2022-09-03T07:25:58;2.50;;;2.30;;
5022;SDS011;2530;47.990;7.866;2022-09-03T07:28:26;2.67;;;2.20;;
5022;SDS011;2530;47.990;7.866;2022-09-03T07:30:52;2.50;;;2.20;;
5022;SDS011;2530;47.990;7.866;2022-09-03T07:33:19;2.43;;;2.30;;
5022;SDS011;2530;47.990;7.866;2022-09-03T07:35:45;3.00;;;2.10;;
5022;SDS011;2530;47.990;7.866;2022-09-03T07:38:15;2.88;;;2.67;;
5022;SDS011;2530;47.990;7.866;2022-09-03T07:40:41;3.58;;;2.30;;
5022;SDS011;2530;47.990;7.866;2022-09-03T07:43:07;2.72;;;1.80;;
5022;SDS011;2530;47.990;7.866;2022-09-03T07:45:33;2.00;;;1.90;;
5022;SDS011;2530;47.990;7.866;2022-09-03T07:47:59;2.40;;;1.90;;
5022;SDS011;2530;47.990;7.866;2022-09-03T07:50:24;2.30;;;2.10;;
5022;SDS011;2530;47.990;7.866;2022-09-03T07:52:56;1.90;;;1.80;;
5022;SDS011;2530;47.990;7.866;2022-09-03T07:55:23;2.30;;;1.80;;
5022;SDS011;2530;47.990;7.866;2022-09-03T07:57:49;1.83;;;1.73;;
5022;SDS011;2530;47.990;7.866;2022-09-03T08:00:18;1.95;;;1.75;;
5022;SDS011;2530;47.990;7.866;2022-09-03T08:02:44;1.42;;;1.33;;
5022;SDS011;2530;47.990;7.866;2022-09-03T08:05:09;1.80;;;1.70;;
5022;SDS011;2530;47.990;7.866;2022-09-03T08:07:35;1.70;;;1.60;;
5022;SDS011;2530;47.990;7.866;2022-09-03T08:10:00;1.80;;;1.70;;
5022;SDS011;2530;47.990;7.866;2022-09-03T08:12:26;2.38;;;2.17;;
5022;SDS011;2530;47.990;7.866;2022-09-03T08:14:52;1.80;;;1.70;;
5022;SDS011;2530;47.990;7.866;2022-09-03T08:17:18;1.80;;;1.42;;
5022;SDS011;2530;47.990;7.866;2022-09-03T08:19:43;2.75;;;1.80;;
5022;SDS011;2530;47.990;7.866;2022-09-03T08:22:10;3.00;;;1.80;;
5022;SDS011;2530;47.990;7.866;2022-09-03T08:24:35;1.90;;;1.70;;
5022;SDS011;2530;47.990;7.866;2022-09-03T08:27:01;1.90;;;1.80;;
5022;SDS011;2530;47.990;7.866;2022-09-03T08:29:27;1.98;;;1.88;;
5022;SDS011;2530;47.990;7.866;2022-09-03T08:31:53;2.00;;;1.90;;
5022;SDS011;2530;47.990;7.866;2022-09-03T08:34:18;1.63;;;1.53;;
5022;SDS011;2530;47.990;7.866;2022-09-03T08:36:44;1.97;;;1.87;;
5022;SDS011;2530;47.990;7.866;2022-09-03T08:39:11;3.10;;;1.90;;
5022;SDS011;2530;47.990;7.866;2022-09-03T08:50:07;2.80;;;2.25;;
5022;SDS011;2530;47.990;7.866;2022-09-03T08:57:46;1.80;;;1.70;;
5022;SDS011;2530;47.990;7.866;2022-09-03T09:06:20;2.40;;;2.20;;
5022;SDS011;2530;47.990;7.866;2022-09-03T09:17:12;2.40;;;2.20;;
5022;SDS011;2530;47.990;7.866;2022-09-03T09:19:56;2.35;;;2.10;;
5022;SDS011;2530;47.990;7.866;2022-09-03T09:22:37;3.30;;;2.50;;
5022;SDS011;2530;47.990;7.866;2022-09-03T09:25:09;2.85;;;2.10;;
5022;SDS011;2530;47.990;7.866;2022-09-03T09:28:00;2.70;;;2.50;;
5022;SDS011;2530;47.990;7.866;2022-09-03T09:30:27;2.78;;;2.58;;
5022;SDS011;2530;47.990;7.866;2022-09-03T09:32:55;3.50;;;2.80;;
5022;SDS011;2530;47.990;7.866;2022-09-03T09:35:21;2.70;;;2.50;;
5022;SDS011;2530;47.990;7.866;2022-09-03T09:37:48;5.20;;;3.08;;
5022;SDS011;2530;47.990;7.866;2022-09-03T09:40:40;5.18;;;3.45;;
5022;SDS011;2530;47.990;7.866;2022-09-03T09:43:11;3.10;;;2.42;;
5022;SDS011;2530;47.990;7.866;2022-09-03T09:45:40;4.05;;;2.05;;
5022;SDS011;2530;47.990;7.866;2022-09-03T09:48:19;2.63;;;2.20;;
5022;SDS011;2530;47.990;7.866;2022-09-03T09:51:02;2.80;;;2.35;;
5022;SDS011;2530;47.990;7.866;2022-09-03T09:53:29;3.08;;;2.60;;
5022;SDS011;2530;47.990;7.866;2022-09-03T09:55:55;3.72;;;3.00;;
5022;SDS011;2530;47.990;7.866;2022-09-03T09:58:27;3.08;;;2.60;;
5022;SDS011;2530;47.990;7.866;2022-09-03T10:01:05;2.47;;;2.28;;
5022;SDS011;2530;47.990;7.866;2022-09-03T10:03:48;2.92;;;2.53;;
5022;SDS011;2530;47.990;7.866;2022-09-03T10:06:21;5.85;;;3.20;;
5022;SDS011;2530;47.990;7.866;2022-09-03T10:09:07;4.30;;;3.27;;
5022;SDS011;2530;47.990;7.866;2022-09-03T10:11:35;5.70;;;3.40;;
5022;SDS011;2530;47.990;7.866;2022-09-03T10:14:09;3.20;;;2.15;;
5022;SDS011;2530;47.990;7.866;2022-09-03T10:16:42;2.63;;;1.73;;
5022;SDS011;2530;47.990;7.866;2022-09-03T10:19:17;2.40;;;1.60;;
5022;SDS011;2530;47.990;7.866;2022-09-03T10:21:53;1.90;;;0.90;;
5022;SDS011;2530;47.990;7.866;2022-09-03T10:27:03;1.60;;;1.30;;
5022;SDS011;2530;47.990;7.866;2022-09-03T10:29:34;1.30;;;1.20;;
5022;SDS011;2530;47.990;7.866;2022-09-03T10:34:51;1.40;;;1.10;;
5022;SDS011;2530;47.990;7.866;2022-09-03T10:40:35;2.00;;;1.50;;
5022;SDS011;2530;47.990;7.866;2022-09-03T10:43:21;1.42;;;1.33;;
5022;SDS011;2530;47.990;7.866;2022-09-03T10:54:21;0.80;;;0.80;;
5022;SDS011;2530;47.990;7.866;2022-09-03T10:57:20;1.30;;;0.70;;
5022;SDS011;2530;47.990;7.866;2022-09-03T11:00:18;1.50;;;0.80;;
5022;SDS011;2530;47.990;7.866;2022-09-03T11:05:36;1.30;;;0.70;;
5022;SDS011;2530;47.990;7.866;2022-09-03T11:08:31;1.15;;;0.80;;
5022;SDS011;2530;47.990;7.866;2022-09-03T11:11:16;1.20;;;1.10;;
5022;SDS011;2530;47.990;7.866;2022-09-03T11:14:01;0.90;;;0.90;;
5022;SDS011;2530;47.990;7.866;2022-09-03T11:16:35;1.80;;;0.90;;
5022;SDS011;2530;47.990;7.866;2022-09-03T11:19:11;1.10;;;1.00;;
5022;SDS011;2530;47.990;7.866;2022-09-03T11:21:40;1.10;;;1.00;;
5022;SDS011;2530;47.990;7.866;2022-09-03T11:24:20;2.77;;;0.80;;
5022;SDS011;2530;47.990;7.866;2022-09-03T11:29:53;1.05;;;0.88;;
5022;SDS011;2530;47.990;7.866;2022-09-03T11:32:46;0.80;;;0.70;;
5022;SDS011;2530;47.990;7.866;2022-09-03T11:35:24;0.80;;;0.60;;
5022;SDS011;2530;47.990;7.866;2022-09-03T11:41:00;1.20;;;0.90;;
5022;SDS011;2530;47.990;7.866;2022-09-03T11:43:34;0.60;;;0.60;;
5022;SDS011;2530;47.990;7.866;2022-09-03T11:46:51;0.70;;;0.60;;
5022;SDS011;2530;47.990;7.866;2022-09-03T11:48:50;0.82;;;0.60;;
5022;SDS011;2530;47.990;7.866;2022-09-03T11:51:40;0.68;;;0.60;;
5022;SDS011;2530;47.990;7.866;2022-09-03T11:56:44;0.93;;;0.52;;
5022;SDS011;2530;47.990;7.866;2022-09-03T12:01:37;0.60;;;0.60;;
5022;SDS011;2530;47.990;7.866;2022-09-03T12:04:17;1.40;;;0.60;;
5022;SDS011;2530;47.990;7.866;2022-09-03T12:06:48;1.20;;;0.60;;
5022;SDS011;2530;47.990;7.866;2022-09-03T12:09:24;1.50;;;0.70;;
5022;SDS011;2530;47.990;7.866;2022-09-03T12:19:58;0.68;;;0.52;;
5022;SDS011;2530;47.990;7.866;2022-09-03T12:22:25;0.80;;;0.60;;
5022;SDS011;2530;47.990;7.866;2022-09-03T12:24:53;0.60;;;0.60;;
5022;SDS011;2530;47.990;7.866;2022-09-03T12:29:57;0.80;;;0.80;;
5022;SDS011;2530;47.990;7.866;2022-09-03T12:32:25;0.80;;;0.70;;
5022;SDS011;2530;47.990;7.866;2022-09-03T12:34:56;1.00;;;0.60;;
5022;SDS011;2530;47.990;7.866;2022-09-03T12:37:22;0.88;;;0.77;;
5022;SDS011;2530;47.990;7.866;2022-09-03T12:39:50;0.80;;;0.80;;
5022;SDS011;2530;47.990;7.866;2022-09-03T12:42:25;1.97;;;0.70;;
5022;SDS011;2530;47.990;7.866;2022-09-03T12:44:52;1.00;;;0.80;;
5022;SDS011;2530;47.990;7.866;2022-09-03T12:47:18;0.80;;;0.80;;
5022;SDS011;2530;47.990;7.866;2022-09-03T12:49:46;2.85;;;0.80;;
5022;SDS011;2530;47.990;7.866;2022-09-03T12:55:07;1.70;;;0.70;;
5022;SDS011;2530;47.990;7.866;2022-09-03T12:58:02;1.50;;;1.00;;
5022;SDS011;2530;47.990;7.866;2022-09-03T13:00:37;1.00;;;0.80;;
5022;SDS011;2530;47.990;7.866;2022-09-03T13:05:55;2.00;;;0.93;;
5022;SDS011;2530;47.990;7.866;2022-09-03T13:08:36;0.77;;;0.60;;
5022;SDS011;2530;47.990;7.866;2022-09-03T13:11:08;0.80;;;0.70;;
5022;SDS011;2530;47.990;7.866;2022-09-03T13:13:35;0.90;;;0.60;;
5022;SDS011;2530;47.990;7.866;2022-09-03T13:16:05;0.70;;;0.50;;
5022;SDS011;2530;47.990;7.866;2022-09-03T13:18:39;2.30;;;0.80;;
5022;SDS011;2530;47.990;7.866;2022-09-03T13:21:30;1.60;;;0.60;;
5022;SDS011;2530;47.990;7.866;2022-09-03T13:24:15;0.80;;;0.80;;
5022;SDS011;2530;47.990;7.866;2022-09-03T13:31:59;0.70;;;0.60;;
5022;SDS011;2530;47.990;7.866;2022-09-03T13:37:08;0.50;;;0.50;;
5022;SDS011;2530;47.990;7.866;2022-09-03T13:40:01;1.40;;;0.70;;
5022;SDS011;2530;47.990;7.866;2022-09-03T13:42:54;0.55;;;0.45;;
5022;SDS011;2530;47.990;7.866;2022-09-03T13:45:40;2.00;;;0.50;;
5022;SDS011;2530;47.990;7.866;2022-09-03T13:48:14;0.70;;;0.70;;
5022;SDS011;2530;47.990;7.866;2022-09-03T13:51:14;0.70;;;0.50;;
5022;SDS011;2530;47.990;7.866;2022-09-03T14:02:00;0.90;;;0.60;;
5022;SDS011;2530;47.990;7.866;2022-09-03T14:10:20;0.60;;;0.60;;
5022;SDS011;2530;47.990;7.866;2022-09-03T14:16:12;0.73;;;0.73;;
5022;SDS011;2530;47.990;7.866;2022-09-03T14:22:21;0.65;;;0.65;;
5022;SDS011;2530;47.990;7.866;2022-09-03T14:25:24;1.02;;;0.90;;
5022;SDS011;2530;47.990;7.866;2022-09-03T14:27:43;0.60;;;0.60;;
5022;SDS011;2530;47.990;7.866;2022-09-03T14:32:46;0.70;;;0.63;;
5022;SDS011;2530;47.990;7.866;2022-09-03T14:38:31;1.30;;;1.02;;
5022;SDS011;2530;47.990;7.866;2022-09-03T14:41:03;0.60;;;0.60;;
5022;SDS011;2530;47.990;7.866;2022-09-03T14:46:40;0.90;;;0.80;;
5022;SDS011;2530;47.990;7.866;2022-09-03T15:12:52;1.00;;;1.00;;
5022;SDS011;2530;47.990;7.866;2022-09-03T15:18:01;1.70;;;1.20;;
5022;SDS011;2530;47.990;7.866;2022-09-03T15:20:51;1.20;;;1.10;;
5022;SDS011;2530;47.990;7.866;2022-09-03T15:23:22;1.40;;;1.27;;
5022;SDS011;2530;47.990;7.866;2022-09-03T15:34:02;1.40;;;1.30;;
5022;SDS011;2530;47.990;7.866;2022-09-03T15:36:51;2.50;;;1.40;;
5022;SDS011;2530;47.990;7.866;2022-09-03T15:39:21;1.70;;;1.20;;
5022;SDS011;2530;47.990;7.866;2022-09-03T15:41:55;2.60;;;1.23;;
5022;SDS011;2530;47.990;7.866;2022-09-03T15:44:33;1.40;;;1.30;;
5022;SDS011;2530;47.990;7.866;2022-09-03T15:55:46;1.73;;;1.20;;
5022;SDS011;2530;47.990;7.866;2022-09-03T16:01:03;2.20;;;1.60;;
5022;SDS011;2530;47.990;7.866;2022-09-03T16:03:38;1.40;;;1.00;;
5022;SDS011;2530;47.990;7.866;2022-09-03T16:06:19;1.33;;;1.20;;
5022;SDS011;2530;47.990;7.866;2022-09-03T16:09:04;2.40;;;1.50;;
5022;SDS011;2530;47.990;7.866;2022-09-03T16:14:45;2.80;;;1.20;;
5022;SDS011;2530;47.990;7.866;2022-09-03T16:17:32;1.35;;;1.20;;
5022;SDS011;2530;47.990;7.866;2022-09-03T16:22:43;1.35;;;1.25;;
5022;SDS011;2530;47.990;7.866;2022-09-03T16:28:20;1.30;;;1.20;;
5022;SDS011;2530;47.990;7.866;2022-09-03T16:31:00;1.40;;;1.30;;
5022;SDS011;2530;47.990;7.866;2022-09-03T16:33:44;1.70;;;1.60;;
5022;SDS011;2530;47.990;7.866;2022-09-03T16:36:23;1.90;;;1.70;;
5022;SDS011;2530;47.990;7.866;2022-09-03T16:39:06;1.40;;;1.30;;
5022;SDS011;2530;47.990;7.866;2022-09-03T16:41:50;2.13;;;1.58;;
5022;SDS011;2530;47.990;7.866;2022-09-03T16:44:30;2.10;;;1.90;;
5022;SDS011;2530;47.990;7.866;2022-09-03T16:53:05;2.40;;;1.55;;
5022;SDS011;2530;47.990;7.866;2022-09-03T16:58:43;1.70;;;1.60;;
5022;SDS011;2530;47.990;7.866;2022-09-03T17:07:38;1.60;;;1.48;;
5022;SDS011;2530;47.990;7.866;2022-09-03T17:10:13;1.70;;;1.30;;
5022;SDS011;2530;47.990;7.866;2022-09-03T17:24:05;1.50;;;1.40;;
5022;SDS011;2530;47.990;7.866;2022-09-03T17:29:33;1.60;;;1.50;;
5022;SDS011;2530;47.990;7.866;2022-09-03T17:35:17;2.70;;;1.60;;
5022;SDS011;2530;47.990;7.866;2022-09-03T17:38:03;3.78;;;2.10;;
5022;SDS011;2530;47.990;7.866;2022-09-03T17:43:24;2.10;;;1.90;;
5022;SDS011;2530;47.990;7.866;2022-09-03T17:54:09;4.97;;;2.22;;
5022;SDS011;2530;47.990;7.866;2022-09-03T17:56:50;3.60;;;2.25;;
5022;SDS011;2530;47.990;7.866;2022-09-03T18:02:17;2.95;;;2.60;;
5022;SDS011;2530;47.990;7.866;2022-09-03T18:05:25;3.80;;;2.75;;
5022;SDS011;2530;47.990;7.866;2022-09-03T18:10:38;3.42;;;2.28;;
5022;SDS011;2530;47.990;7.866;2022-09-03T18:16:23;3.80;;;2.17;;
5022;SDS011;2530;47.990;7.866;2022-09-03T18:21:27;2.55;;;2.20;;
5022;SDS011;2530;47.990;7.866;2022-09-03T18:24:34;2.38;;;2.00;;
5022;SDS011;2530;47.990;7.866;2022-09-03T18:27:32;2.83;;;2.53;;
5022;SDS011;2530;47.990;7.866;2022-09-03T18:30:23;3.67;;;2.40;;
5022;SDS011;2530;47.990;7.866;2022-09-03T18:33:08;4.20;;;1.90;;
5022;SDS011;2530;47.990;7.866;2022-09-03T18:35:52;4.43;;;2.10;;
5022;SDS011;2530;47.990;7.866;2022-09-03T18:38:37;2.10;;;1.90;;
5022;SDS011;2530;47.990;7.866;2022-09-03T18:41:32;2.30;;;2.10;;
5022;SDS011;2530;47.990;7.866;2022-09-03T18:50:52;3.22;;;2.53;;
5022;SDS011;2530;47.990;7.866;2022-09-03T18:57:04;2.58;;;2.30;;
5022;SDS011;2530;47.990;7.866;2022-09-03T19:00:07;2.97;;;2.70;;
5022;SDS011;2530;47.990;7.866;2022-09-03T19:05:46;2.78;;;2.40;;
5022;SDS011;2530;47.990;7.866;2022-09-03T19:09:01;2.80;;;2.30;;
5022;SDS011;2530;47.990;7.866;2022-09-03T19:21:46;3.80;;;2.20;;
5022;SDS011;2530;47.990;7.866;2022-09-03T19:24:32;4.00;;;2.40;;
5022;SDS011;2530;47.990;7.866;2022-09-03T19:45:36;3.85;;;2.35;;
5022;SDS011;2530;47.990;7.866;2022-09-03T19:51:39;2.90;;;2.33;;
5022;SDS011;2530;47.990;7.866;2022-09-03T19:54:42;6.68;;;2.88;;
5022;SDS011;2530;47.990;7.866;2022-09-03T19:57:27;3.03;;;2.50;;
5022;SDS011;2530;47.990;7.866;2022-09-03T20:00:13;3.77;;;3.00;;
5022;SDS011;2530;47.990;7.866;2022-09-03T20:02:58;3.40;;;2.40;;
5022;SDS011;2530;47.990;7.866;2022-09-03T20:05:44;3.03;;;2.73;;
5022;SDS011;2530;47.990;7.866;2022-09-03T20:08:28;3.00;;;2.30;;
5022;SDS011;2530;47.990;7.866;2022-09-03T20:11:17;4.38;;;2.90;;
5022;SDS011;2530;47.990;7.866;2022-09-03T20:13:45;2.80;;;2.60;;
5022;SDS011;2530;47.990;7.866;2022-09-03T20:30:00;4.93;;;2.40;;
5022;SDS011;2530;47.990;7.866;2022-09-03T20:32:56;3.42;;;2.45;;
5022;SDS011;2530;47.990;7.866;2022-09-03T20:35:51;3.53;;;2.17;;
5022;SDS011;2530;47.990;7.866;2022-09-03T20:38:30;4.28;;;2.40;;
5022;SDS011;2530;47.990;7.866;2022-09-03T20:44:27;4.72;;;2.58;;
5022;SDS011;2530;47.990;7.866;2022-09-03T20:53:01;2.80;;;2.50;;
5022;SDS011;2530;47.990;7.866;2022-09-03T20:56:08;4.80;;;2.40;;
5022;SDS011;2530;47.990;7.866;2022-09-03T21:01:09;3.50;;;2.50;;
5022;SDS011;2530;47.990;7.866;2022-09-03T21:06:58;3.92;;;2.80;;
5022;SDS011;2530;47.990;7.866;2022-09-03T21:12:21;3.50;;;2.60;;
5022;SDS011;2530;47.990;7.866;2022-09-03T21:21:48;4.22;;;2.90;;
5022;SDS011;2530;47.990;7.866;2022-09-03T21:24:20;2.90;;;2.50;;
5022;SDS011;2530;47.990;7.866;2022-09-03T21:26:52;3.38;;;2.40;;
5022;SDS011;2530;47.990;7.866;2022-09-03T21:29:26;4.33;;;2.40;;
5022;SDS011;2530;47.990;7.866;2022-09-03T21:34:43;2.80;;;2.60;;
5022;SDS011;2530;47.990;7.866;2022-09-03T21:37:27;2.72;;;2.53;;
5022;SDS011;2530;47.990;7.866;2022-09-03T21:39:58;2.50;;;2.30;;
5022;SDS011;2530;47.990;7.866;2022-09-03T21:45:12;2.20;;;2.00;;
5022;SDS011;2530;47.990;7.866;2022-09-03T21:47:39;3.38;;;2.40;;
5022;SDS011;2530;47.990;7.866;2022-09-03T21:50:17;3.60;;;2.60;;
5022;SDS011;2530;47.990;7.866;2022-09-03T21:52:59;3.38;;;2.60;;
5022;SDS011;2530;47.990;7.866;2022-09-03T22:00:51;4.80;;;3.20;;
5022;SDS011;2530;47.990;7.866;2022-09-03T22:03:23;4.30;;;2.70;;
5022;SDS011;2530;47.990;7.866;2022-09-03T22:08:35;2.50;;;2.30;;
5022;SDS011;2530;47.990;7.866;2022-09-03T22:11:21;4.70;;;2.75;;
5022;SDS011;2530;47.990;7.866;2022-09-03T22:14:00;3.60;;;2.45;;